createdAt,value
2022-11-21T00:00:00.826Z,-1.8
2022-11-21T00:10:00.782Z,-1.7
2022-11-21T00:20:01.245Z,-1.7
2022-11-21T00:30:00.978Z,-1.8
2022-11-21T00:40:01.654Z,-1.6
2022-11-21T00:50:01.308Z,-1.8
2022-11-21T01:00:01.067Z,-1.7
2022-11-21T01:10:01.518Z,-1.8
2022-11-21T01:20:01.326Z,-1.7
2022-11-21T01:30:00.954Z,-1.6
2022-11-21T01:40:00.188Z,-1.6
2022-11-21T01:50:01.568Z,-1.6
2022-11-21T02:00:01.255Z,-1.7
2022-11-21T02:10:01.306Z,-1.5
2022-11-21T02:20:01.600Z,-1.5
2022-11-21T02:30:02.896Z,-1.3
2022-11-21T02:40:01.097Z,-1.3
2022-11-21T02:50:01.257Z,-1.5
2022-11-21T03:00:00.153Z,-1.3
2022-11-21T03:10:01.465Z,-1.3
2022-11-21T03:20:00.989Z,-1.1
2022-11-21T03:30:01.207Z,-1.1
2022-11-21T03:40:01.321Z,-1.2
2022-11-21T03:50:01.034Z,-1.3
2022-11-21T04:00:01.279Z,-1.2
2022-11-21T04:10:01.949Z,-1.3
2022-11-21T04:20:01.252Z,-1.1
2022-11-21T04:30:01.408Z,-1.2
2022-11-21T04:40:00.169Z,-1.4
2022-11-21T04:50:01.069Z,-1.3
2022-11-21T05:00:01.331Z,-1.0
2022-11-21T05:10:00.138Z,-1.0
2022-11-21T05:20:01.943Z,-1.3
2022-11-21T05:30:01.061Z,-1.3
2022-11-21T05:40:01.016Z,-1.2
2022-11-21T05:50:01.007Z,-0.9
2022-11-21T06:00:01.313Z,-0.9
2022-11-21T06:10:01.039Z,-0.7
2022-11-21T06:20:01.298Z,-0.8
2022-11-21T06:30:01.343Z,-0.7
2022-11-21T06:40:00.141Z,-0.6
2022-11-21T06:50:01.242Z,-0.6
2022-11-21T07:00:01.063Z,-0.5
2022-11-21T07:10:00.148Z,-0.6
2022-11-21T07:20:01.894Z,-0.4
2022-11-21T07:30:01.249Z,-0.5
2022-11-21T07:40:02.347Z,-0.8
2022-11-21T07:50:01.248Z,-0.9
2022-11-21T08:00:01.220Z,-0.7
2022-11-21T08:10:01.260Z,-0.9
2022-11-21T08:20:00.203Z,-1.0
2022-11-21T08:30:01.041Z,-0.8
2022-11-21T08:40:01.518Z,-0.9
2022-11-21T08:50:03.092Z,-0.9
2022-11-21T09:00:00.141Z,-0.9
2022-11-21T09:10:00.990Z,-1.0
2022-11-21T09:20:01.281Z,-1.3
2022-11-21T09:30:00.127Z,-1.6
2022-11-21T09:40:01.493Z,-1.8
2022-11-21T09:50:00.127Z,-1.5
2022-11-21T10:00:01.296Z,-1.7
2022-11-21T10:10:01.240Z,-1.8
2022-11-21T10:20:01.203Z,-1.9
2022-11-21T10:30:01.010Z,-2.0
2022-11-21T10:40:01.631Z,-2.2
2022-11-21T10:50:01.739Z,-1.8
2022-11-21T11:00:03.631Z,-2.0
2022-11-21T11:10:01.515Z,-1.9
2022-11-21T11:20:00.174Z,-1.6
2022-11-21T11:30:01.038Z,-1.8
2022-11-21T11:40:00.204Z,-1.5
2022-11-21T11:50:01.370Z,-1.6
2022-11-21T12:00:00.174Z,-1.1
2022-11-21T12:10:01.415Z,-1.6
2022-11-21T12:30:01.232Z,-1.7
2022-11-21T12:40:01.274Z,-1.7
2022-11-21T12:50:01.320Z,-1.3
2022-11-21T13:00:02.848Z,-1.4
2022-11-21T13:10:01.658Z,-1.4
2022-11-21T13:20:01.797Z,-1.4
2022-11-21T13:30:00.967Z,-1.2
2022-11-21T13:40:00.175Z,-1.0
2022-11-21T13:50:01.032Z,-1.0
2022-11-21T14:00:01.632Z,-0.8
2022-11-21T14:10:00.950Z,-1.0
2022-11-21T14:20:01.094Z,-0.9
2022-11-21T14:30:01.101Z,-0.9
2022-11-21T14:40:01.137Z,-0.2
2022-11-21T14:50:06.808Z,-0.8
2022-11-21T15:00:00.166Z,-1.2
2022-11-21T15:20:01.080Z,-1.2
2022-11-21T15:30:01.274Z,-1.2
2022-11-21T15:40:01.146Z,-1.3
2022-11-21T15:50:01.111Z,-1.1
2022-11-21T16:00:01.272Z,-1.0
2022-11-21T16:10:03.226Z,-0.9
2022-11-21T16:20:00.155Z,-1.0
2022-11-21T16:30:01.321Z,-1.1
2022-11-21T16:40:01.471Z,-1.2
2022-11-21T16:50:01.021Z,-1.4
2022-11-21T17:00:01.536Z,-1.7
2022-11-21T17:10:01.495Z,-1.8
2022-11-21T17:20:00.194Z,-1.8
2022-11-21T17:30:00.147Z,-1.9
2022-11-21T17:40:01.490Z,-2.1
2022-11-21T17:50:05.539Z,-2.2
2022-11-21T18:00:01.466Z,-2.3
2022-11-21T18:10:14.519Z,-2.2
2022-11-21T18:20:01.233Z,-2.1
2022-11-21T18:30:01.392Z,-1.9
2022-11-21T18:40:01.007Z,-1.8
2022-11-21T18:50:00.161Z,-1.6
2022-11-21T19:00:00.280Z,-1.8
2022-11-21T19:10:20.581Z,-1.8
2022-11-21T19:20:00.984Z,-1.9
2022-11-21T19:30:01.282Z,-1.5
2022-11-21T19:40:01.213Z,-1.8
2022-11-21T19:50:00.141Z,-1.6
2022-11-21T20:00:01.107Z,-1.5
2022-11-21T20:10:00.107Z,-1.6
2022-11-21T20:20:01.524Z,-1.8
2022-11-21T20:30:00.145Z,-1.8
2022-11-21T20:40:01.497Z,-1.6
2022-11-21T20:50:00.157Z,-1.6
2022-11-21T21:00:01.232Z,-1.7
2022-11-21T21:10:00.154Z,-1.6
2022-11-21T21:20:02.148Z,-1.7
2022-11-21T21:30:01.392Z,-1.4
2022-11-21T21:40:02.222Z,-1.1
2022-11-21T21:50:01.340Z,-0.8
2022-11-21T22:00:01.315Z,-1.0
2022-11-21T22:10:01.977Z,-1.4
2022-11-21T22:20:01.029Z,-1.5
2022-11-21T22:30:01.312Z,-1.8
2022-11-21T22:40:02.186Z,-2.0
2022-11-21T22:50:00.153Z,-2.3
2022-11-21T23:00:03.931Z,-2.2
2022-11-21T23:10:01.234Z,-2.5
2022-11-21T23:20:02.347Z,-2.5
2022-11-21T23:30:00.113Z,-2.5
2022-11-21T23:40:00.151Z,-2.6
2022-11-21T23:50:01.025Z,-2.7
